Time;durP1;ratioP1;P1;durP2;ratioP2;P2;SDS_P1;SDS_P2;PMS_P1;PMS_P2;Temp;Humidity;BMP_temperature;BMP_pressure;BME280_temperature;BME280_humidity;BME280_pressure;Samples;Min_cycle;Max_cycle;Signal;HPM_P1;HPM_P2
2023/03/26 00:02:32;;;;;;;3.90;3.50;;;23.60;65.90;;;;;;6080043;28;94074;-72
2023/03/26 00:05:35;;;;;;;4.20;3.47;;;23.60;65.80;;;;;;6079349;28;94141;-70
2023/03/26 00:08:39;;;;;;;3.65;3.30;;;23.60;65.80;;;;;;6081335;28;93835;-71
2023/03/26 00:11:42;;;;;;;3.75;3.20;;;23.60;65.70;;;;;;6082754;28;93847;-71
2023/03/26 00:14:45;;;;;;;3.42;3.10;;;23.60;65.90;;;;;;6077042;28;94206;-70
2023/03/26 00:17:50;;;;;;;3.40;3.10;;;23.60;65.80;;;;;;6081901;28;93908;-72
2023/03/26 00:20:52;;;;;;;3.50;3.20;;;23.60;65.70;;;;;;6079489;28;95027;-70
2023/03/26 00:23:54;;;;;;;3.83;3.42;;;23.60;65.80;;;;;;6081481;28;94134;-71
2023/03/26 00:26:56;;;;;;;3.25;2.92;;;23.60;65.90;;;;;;6075771;28;94039;-72
2023/03/26 00:30:06;;;;;;;3.45;3.15;;;23.60;66.10;;;;;;6080142;28;94123;-71
2023/03/26 00:33:10;;;;;;;3.28;2.92;;;23.60;66.00;;;;;;6074542;28;93281;-72
2023/03/26 00:36:16;;;;;;;3.72;3.40;;;23.60;65.90;;;;;;6070373;28;94033;-71
2023/03/26 00:39:18;;;;;;;3.53;3.22;;;23.60;66.10;;;;;;6080623;28;94277;-71
2023/03/26 00:42:22;;;;;;;3.85;3.05;;;23.50;66.10;;;;;;6080406;28;93466;-72
2023/03/26 00:45:24;;;;;;;4.15;3.05;;;23.60;66.00;;;;;;6079173;28;93511;-70
2023/03/26 00:48:28;;;;;;;4.38;3.15;;;23.50;66.00;;;;;;6080783;28;94239;-71
2023/03/26 00:51:32;;;;;;;5.03;3.13;;;23.50;66.10;;;;;;6079295;28;95089;-73
2023/03/26 00:54:34;;;;;;;3.85;3.00;;;23.50;66.10;;;;;;6080469;28;94319;-72
2023/03/26 00:57:36;;;;;;;4.10;3.20;;;23.50;66.20;;;;;;6079171;28;93009;-72
2023/03/26 01:00:42;;;;;;;4.97;3.35;;;23.50;66.20;;;;;;6079805;28;94164;-73
2023/03/26 01:03:46;;;;;;;5.20;3.15;;;23.50;66.20;;;;;;6079634;28;94255;-73
2023/03/26 01:06:49;;;;;;;4.72;3.42;;;23.50;66.20;;;;;;6079819;28;94458;-73
2023/03/26 01:09:51;;;;;;;4.18;2.80;;;23.50;66.20;;;;;;6080481;28;94286;-70
2023/03/26 01:12:54;;;;;;;4.32;3.00;;;23.50;66.10;;;;;;6079087;28;93609;-70
2023/03/26 01:15:56;;;;;;;3.47;2.67;;;23.50;66.10;;;;;;6078746;28;94037;-71
2023/03/26 01:19:00;;;;;;;4.53;2.80;;;23.40;66.00;;;;;;6080364;28;92970;-70
2023/03/26 01:22:03;;;;;;;4.93;2.60;;;23.40;66.00;;;;;;6079243;28;95813;-71
2023/03/26 01:25:08;;;;;;;4.57;2.83;;;23.40;66.10;;;;;;6080506;28;94118;-72
2023/03/26 01:28:11;;;;;;;3.60;2.60;;;23.40;67.00;;;;;;6079811;28;94214;-71
2023/03/26 01:31:23;;;;;;;3.15;2.40;;;23.40;66.10;;;;;;6071878;28;94412;-71
2023/03/26 01:34:36;;;;;;;3.75;2.65;;;23.40;66.10;;;;;;6075303;28;93155;-71
2023/03/26 01:37:46;;;;;;;3.70;2.60;;;23.40;65.90;;;;;;6077816;28;94556;-71
2023/03/26 01:40:54;;;;;;;3.55;2.40;;;23.40;66.00;;;;;;6080284;28;94041;-71
2023/03/26 01:44:03;;;;;;;3.53;2.53;;;23.40;65.90;;;;;;6080798;28;93395;-70
2023/03/26 01:47:07;;;;;;;4.32;2.25;;;23.40;65.90;;;;;;6082622;28;93014;-70
2023/03/26 01:50:10;;;;;;;3.40;2.10;;;23.40;65.90;;;;;;6083761;28;94078;-71
2023/03/26 01:53:13;;;;;;;2.60;2.20;;;23.30;65.90;;;;;;6082661;28;95009;-71
2023/03/26 01:56:21;;;;;;;4.80;2.20;;;23.40;66.00;;;;;;6083344;28;94064;-70
2023/03/26 01:59:55;;;;;;;3.75;2.28;;;23.40;66.10;;;;;;6082413;28;94065;-71
2023/03/26 02:03:07;;;;;;;4.97;2.45;;;23.40;66.10;;;;;;6067030;28;94364;-71
2023/03/26 02:06:16;;;;;;;4.28;2.35;;;23.30;66.10;;;;;;6080644;28;94092;-72
2023/03/26 02:09:24;;;;;;;2.75;2.03;;;23.40;66.20;;;;;;6082370;28;93249;-71
2023/03/26 02:12:29;;;;;;;4.10;2.17;;;23.40;66.20;;;;;;6084243;28;94077;-72
2023/03/26 02:15:31;;;;;;;4.15;2.47;;;23.30;66.10;;;;;;6082891;28;92367;-70
2023/03/26 02:18:37;;;;;;;5.47;2.80;;;23.30;66.10;;;;;;6081445;28;94410;-71
2023/03/26 02:21:39;;;;;;;3.22;2.03;;;23.30;66.10;;;;;;6078112;28;94080;-70
2023/03/26 02:24:41;;;;;;;3.10;1.85;;;23.30;66.10;;;;;;6082589;28;95425;-71
2023/03/26 02:27:46;;;;;;;2.92;2.05;;;23.30;66.10;;;;;;6083061;28;94153;-71
2023/03/26 02:30:48;;;;;;;2.72;2.00;;;23.30;66.10;;;;;;6082515;28;94354;-70
2023/03/26 02:33:50;;;;;;;3.22;2.13;;;23.30;66.10;;;;;;6081912;28;94062;-72
2023/03/26 02:36:52;;;;;;;3.30;1.73;;;23.30;66.20;;;;;;6080731;28;93633;-71
2023/03/26 02:39:54;;;;;;;3.28;2.20;;;23.30;66.00;;;;;;6082327;28;94039;-72
2023/03/26 02:42:58;;;;;;;3.30;2.00;;;23.30;65.90;;;;;;6083886;28;94100;-70
2023/03/26 02:46:00;;;;;;;4.50;2.58;;;23.30;65.90;;;;;;6082163;28;93406;-71
2023/03/26 02:49:02;;;;;;;2.70;2.05;;;23.30;65.90;;;;;;6079507;28;94193;-72
2023/03/26 02:52:05;;;;;;;2.90;1.73;;;23.30;65.80;;;;;;6083260;28;94785;-72
2023/03/26 02:55:07;;;;;;;2.55;1.90;;;23.20;65.90;;;;;;6081172;28;95054;-71
2023/03/26 02:58:11;;;;;;;3.10;1.77;;;23.30;65.70;;;;;;6081310;28;94254;-72
2023/03/26 03:01:17;;;;;;;2.20;1.75;;;23.20;65.60;;;;;;6082487;28;94221;-72
2023/03/26 03:04:19;;;;;;;2.95;2.05;;;23.20;65.70;;;;;;6080708;28;94132;-72
2023/03/26 03:07:23;;;;;;;2.20;1.80;;;23.20;65.70;;;;;;6082564;28;94100;-73
2023/03/26 03:10:26;;;;;;;2.50;1.90;;;23.20;65.70;;;;;;6081355;28;94103;-73
2023/03/26 03:13:30;;;;;;;2.83;2.08;;;23.20;65.70;;;;;;6082892;28;94187;-72
2023/03/26 03:16:32;;;;;;;3.03;1.73;;;23.20;65.50;;;;;;6078677;28;93401;-72
2023/03/26 03:19:34;;;;;;;2.65;1.85;;;23.20;65.60;;;;;;6079717;28;94107;-73
2023/03/26 03:22:36;;;;;;;2.88;1.95;;;23.20;65.50;;;;;;6071731;28;92998;-72
2023/03/26 03:25:39;;;;;;;2.17;1.80;;;23.20;65.50;;;;;;6079181;28;95336;-70
2023/03/26 03:28:43;;;;;;;2.50;1.65;;;23.20;65.40;;;;;;6081676;28;94069;-70
2023/03/26 03:31:46;;;;;;;2.17;1.80;;;23.20;65.50;;;;;;6081274;28;94275;-71
2023/03/26 03:34:48;;;;;;;3.00;2.03;;;23.20;65.60;;;;;;6081844;28;94190;-71
2023/03/26 03:37:50;;;;;;;2.13;1.73;;;23.20;65.60;;;;;;6079970;28;94132;-70
2023/03/26 03:40:54;;;;;;;3.55;2.20;;;23.20;65.70;;;;;;6074923;28;94026;-70
2023/03/26 03:43:58;;;;;;;2.95;1.80;;;23.20;65.60;;;;;;6082036;28;94094;-70
2023/03/26 03:47:00;;;;;;;3.15;1.95;;;23.10;65.40;;;;;;6082446;28;92285;-70
2023/03/26 03:50:03;;;;;;;2.60;2.00;;;23.20;65.50;;;;;;6076823;28;94225;-69
2023/03/26 03:53:05;;;;;;;2.38;1.90;;;23.10;65.40;;;;;;6080400;28;94074;-70
2023/03/26 03:56:09;;;;;;;2.80;1.90;;;23.20;65.40;;;;;;6081493;28;95146;-71
2023/03/26 03:59:12;;;;;;;3.22;2.10;;;23.20;65.50;;;;;;6079386;28;94058;-70
2023/03/26 04:02:19;;;;;;;3.25;2.05;;;23.10;65.50;;;;;;6079488;28;94091;-71
2023/03/26 04:05:22;;;;;;;3.30;1.95;;;23.10;65.40;;;;;;6079087;28;94194;-71
2023/03/26 04:08:25;;;;;;;2.55;1.80;;;23.10;65.50;;;;;;6081949;28;93994;-71
2023/03/26 04:11:27;;;;;;;2.55;2.00;;;23.10;65.60;;;;;;6081290;28;94515;-71
2023/03/26 04:14:30;;;;;;;2.85;1.98;;;23.20;65.70;;;;;;6082687;28;95767;-71
2023/03/26 04:17:32;;;;;;;4.90;2.28;;;23.10;65.60;;;;;;6079772;28;93435;-71
2023/03/26 04:20:34;;;;;;;2.70;2.22;;;23.10;65.50;;;;;;6077263;28;94094;-71
2023/03/26 04:23:36;;;;;;;4.10;2.33;;;23.10;65.50;;;;;;6082346;28;94468;-71
2023/03/26 04:26:38;;;;;;;3.33;2.30;;;23.10;65.60;;;;;;6080119;28;95026;-72
2023/03/26 04:29:44;;;;;;;4.00;2.50;;;23.10;65.50;;;;;;6079389;28;94090;-70
2023/03/26 04:32:46;;;;;;;3.28;2.38;;;23.10;65.40;;;;;;6079740;28;94197;-72
2023/03/26 04:35:48;;;;;;;3.47;2.28;;;23.10;65.40;;;;;;6080553;28;94342;-71
2023/03/26 04:38:50;;;;;;;4.60;2.42;;;23.10;65.30;;;;;;6068816;28;94540;-71
2023/03/26 04:41:52;;;;;;;3.72;2.63;;;23.10;65.30;;;;;;6081438;28;94173;-71
2023/03/26 04:44:58;;;;;;;3.42;2.50;;;23.10;65.40;;;;;;6081576;28;94063;-71
2023/03/26 04:48:01;;;;;;;3.92;2.40;;;23.10;65.50;;;;;;6080256;28;93360;-72
2023/03/26 04:51:05;;;;;;;3.90;2.70;;;23.10;65.50;;;;;;6079626;28;94177;-71
2023/03/26 04:54:11;;;;;;;2.65;2.30;;;23.10;65.40;;;;;;6079479;28;95429;-71
2023/03/26 04:57:19;;;;;;;3.00;2.42;;;23.10;65.40;;;;;;6078692;28;95515;-72
2023/03/26 05:00:23;;;;;;;3.10;2.58;;;23.10;65.30;;;;;;6071140;28;94512;-72
2023/03/26 05:03:30;;;;;;;3.47;2.50;;;23.00;65.20;;;;;;6081841;28;92995;-72
2023/03/26 05:06:33;;;;;;;3.78;2.30;;;23.10;65.40;;;;;;6078813;28;94141;-71
2023/03/26 05:09:35;;;;;;;3.60;2.33;;;23.10;65.30;;;;;;6079410;28;94336;-71
2023/03/26 05:12:37;;;;;;;2.88;2.30;;;23.00;65.10;;;;;;6079037;28;94084;-71
2023/03/26 05:15:40;;;;;;;2.78;2.10;;;23.00;65.00;;;;;;6080435;28;94145;-70
2023/03/26 05:18:42;;;;;;;3.97;2.75;;;23.00;65.10;;;;;;6080932;28;93349;-71
2023/03/26 05:21:45;;;;;;;3.92;2.70;;;23.00;65.20;;;;;;6085023;28;94069;-70
2023/03/26 05:24:47;;;;;;;4.15;2.47;;;23.10;65.20;;;;;;6074079;28;94093;-70
2023/03/26 05:27:49;;;;;;;3.53;2.60;;;23.10;65.40;;;;;;6083932;28;95618;-69
2023/03/26 05:30:53;;;;;;;4.68;2.60;;;23.10;66.30;;;;;;6083496;28;94419;-70
2023/03/26 05:33:55;;;;;;;4.10;2.63;;;23.10;66.70;;;;;;6073335;28;93355;-71
2023/03/26 05:36:57;;;;;;;5.40;2.97;;;23.10;67.10;;;;;;6078087;28;94003;-70
2023/03/26 05:40:00;;;;;;;4.43;2.78;;;23.10;67.10;;;;;;6079100;28;94604;-70
2023/03/26 05:43:02;;;;;;;3.40;2.58;;;23.10;67.20;;;;;;6079799;28;94238;-70
2023/03/26 05:46:06;;;;;;;3.63;2.80;;;23.00;67.40;;;;;;6084051;28;93377;-71
2023/03/26 05:49:08;;;;;;;6.05;2.92;;;23.10;67.60;;;;;;6083390;28;95251;-70
2023/03/26 05:52:13;;;;;;;4.50;2.88;;;23.10;67.60;;;;;;6083680;28;94208;-70
2023/03/26 05:55:17;;;;;;;4.43;2.80;;;23.10;67.60;;;;;;6084123;28;94264;-71
2023/03/26 05:58:19;;;;;;;4.00;2.72;;;23.20;67.70;;;;;;6080639;28;95466;-71
2023/03/26 06:01:24;;;;;;;4.35;3.00;;;23.20;67.70;;;;;;6081452;28;94129;-71
2023/03/26 06:04:27;;;;;;;4.78;2.70;;;23.20;67.90;;;;;;6081093;28;94573;-71
2023/03/26 06:07:30;;;;;;;4.57;2.60;;;23.30;68.10;;;;;;6079856;28;94197;-71
2023/03/26 06:10:32;;;;;;;3.90;2.83;;;23.30;68.10;;;;;;6076169;28;94055;-71
2023/03/26 06:13:34;;;;;;;5.25;2.90;;;23.30;68.10;;;;;;6078516;28;94553;-70
2023/03/26 06:16:38;;;;;;;2.75;2.30;;;23.30;68.10;;;;;;6080070;28;94175;-71
2023/03/26 06:19:40;;;;;;;3.80;2.90;;;23.40;68.20;;;;;;6081639;28;93968;-70
2023/03/26 06:22:42;;;;;;;4.15;2.75;;;23.40;68.20;;;;;;6083801;28;94292;-71
2023/03/26 06:25:44;;;;;;;3.30;2.70;;;23.40;68.30;;;;;;6083217;28;93123;-71
2023/03/26 06:28:46;;;;;;;3.70;2.75;;;23.40;68.20;;;;;;6080684;28;95045;-70
2023/03/26 06:31:49;;;;;;;3.58;2.63;;;23.50;68.30;;;;;;6077303;28;93041;-70
2023/03/26 06:34:52;;;;;;;3.42;2.85;;;23.50;68.30;;;;;;6080333;28;94004;-70
2023/03/26 06:37:54;;;;;;;4.35;2.55;;;23.50;68.30;;;;;;6082029;28;94270;-70
2023/03/26 06:41:02;;;;;;;4.20;2.47;;;23.50;68.40;;;;;;6082772;28;94028;-70
2023/03/26 06:44:04;;;;;;;2.75;2.45;;;23.60;68.60;;;;;;6083223;28;94452;-70
2023/03/26 06:47:07;;;;;;;4.07;2.78;;;23.60;68.60;;;;;;6082646;28;94202;-71
2023/03/26 06:50:11;;;;;;;3.88;3.03;;;23.60;68.60;;;;;;6082792;28;93448;-70
2023/03/26 06:53:13;;;;;;;4.22;2.50;;;23.60;68.80;;;;;;6076760;28;94391;-69
2023/03/26 06:56:15;;;;;;;3.38;2.60;;;23.70;68.70;;;;;;6081765;28;94215;-70
2023/03/26 06:59:17;;;;;;;3.45;2.60;;;23.70;68.80;;;;;;6080292;28;95093;-70
2023/03/26 07:02:20;;;;;;;3.63;3.03;;;23.70;68.70;;;;;;6078405;28;94457;-70
2023/03/26 07:05:22;;;;;;;3.63;2.83;;;23.70;68.70;;;;;;6076974;28;94184;-69
2023/03/26 07:08:25;;;;;;;4.10;2.90;;;23.80;68.60;;;;;;6078983;28;94392;-70
2023/03/26 07:11:28;;;;;;;4.18;3.10;;;23.70;68.40;;;;;;6078960;28;94151;-71
2023/03/26 07:14:31;;;;;;;3.42;2.88;;;23.80;68.40;;;;;;6080789;28;94273;-70
2023/03/26 07:17:34;;;;;;;3.83;2.97;;;23.80;68.40;;;;;;6083291;28;94166;-69
2023/03/26 07:20:37;;;;;;;4.68;2.67;;;23.80;68.50;;;;;;6077345;28;93447;-69
2023/03/26 07:23:40;;;;;;;4.90;3.38;;;23.80;68.60;;;;;;6079898;28;93754;-71
2023/03/26 07:26:52;;;;;;;5.38;3.28;;;23.80;68.60;;;;;;6079268;28;93123;-70
2023/03/26 07:30:00;;;;;;;4.35;3.22;;;23.80;68.90;;;;;;6070811;28;95222;-69
2023/03/26 07:33:10;;;;;;;4.55;2.80;;;23.90;69.80;;;;;;6071123;28;94110;-73
2023/03/26 07:36:21;;;;;;;4.07;2.90;;;23.90;69.40;;;;;;6082987;28;96740;-68
2023/03/26 07:39:36;;;;;;;4.88;3.00;;;23.90;69.90;;;;;;6079929;28;94144;-69
2023/03/26 07:42:52;;;;;;;21.00;11.98;;;23.90;69.90;;;;;;6079738;28;96514;-69
2023/03/26 07:45:56;;;;;;;41.17;21.58;;;23.90;70.00;;;;;;6071305;28;94124;-69
2023/03/26 07:49:00;;;;;;;45.58;24.95;;;23.90;70.30;;;;;;6078734;28;92934;-70
2023/03/26 07:52:03;;;;;;;44.05;24.00;;;24.00;70.70;;;;;;6079293;28;93309;-69
2023/03/26 07:55:06;;;;;;;44.28;24.80;;;23.90;70.70;;;;;;6078232;28;94277;-69
2023/03/26 07:58:21;;;;;;;42.92;23.88;;;24.00;70.90;;;;;;6078012;28;94144;-69
2023/03/26 08:01:33;;;;;;;49.38;24.98;;;24.00;70.90;;;;;;6079465;28;94012;-69
2023/03/26 08:04:57;;;;;;;44.05;24.00;;;24.00;71.00;;;;;;6075745;28;94193;-70
2023/03/26 08:08:37;;;;;;;47.58;22.63;;;24.00;71.60;;;;;;6077785;28;94087;-72
2023/03/26 08:11:47;;;;;;;41.05;22.90;;;24.00;71.50;;;;;;6079459;28;94246;-72
2023/03/26 08:14:58;;;;;;;38.20;21.67;;;24.00;71.40;;;;;;6075729;28;94102;-70
2023/03/26 08:18:14;;;;;;;40.13;21.58;;;24.10;71.30;;;;;;6078606;28;94109;-70
2023/03/26 08:21:24;;;;;;;36.10;20.58;;;24.00;71.30;;;;;;6079682;28;94215;-70
2023/03/26 08:24:35;;;;;;;34.88;19.70;;;24.10;71.40;;;;;;6079701;28;93935;-70
2023/03/26 08:27:40;;;;;;;37.92;20.55;;;24.10;71.30;;;;;;6077284;28;94122;-71
2023/03/26 08:30:42;;;;;;;35.65;20.13;;;24.10;71.30;;;;;;6074929;28;94342;-72
2023/03/26 08:33:44;;;;;;;33.63;19.40;;;24.10;71.30;;;;;;6077559;28;95740;-73
2023/03/26 08:36:48;;;;;;;31.55;18.58;;;24.10;71.40;;;;;;6079768;28;94286;-72
2023/03/26 08:39:50;;;;;;;32.10;18.15;;;24.10;71.40;;;;;;6075624;28;94090;-73
2023/03/26 08:43:24;;;;;;;36.78;18.73;;;24.10;71.30;;;;;;6079733;28;94112;-73
2023/03/26 08:46:55;;;;;;;34.08;17.70;;;24.10;71.30;;;;;;6075530;28;94160;-72
2023/03/26 08:50:33;;;;;;;29.23;17.05;;;24.10;71.10;;;;;;6076016;28;94063;-73
2023/03/26 08:54:12;;;;;;;27.25;16.38;;;24.10;71.00;;;;;;6079677;28;94190;-72
2023/03/26 08:57:37;;;;;;;33.47;17.30;;;24.10;71.00;;;;;;6062979;28;93406;-72
2023/03/26 09:00:51;;;;;;;33.33;16.38;;;24.10;71.00;;;;;;6080724;28;93161;-73
2023/03/26 09:04:34;;;;;;;33.53;16.45;;;24.20;71.20;;;;;;6082643;28;94511;-73
2023/03/26 09:08:04;;;;;;;32.17;16.30;;;24.20;71.10;;;;;;6064210;28;94968;-72
2023/03/26 09:11:55;;;;;;;29.00;16.05;;;24.20;71.10;;;;;;6079106;28;93898;-73
2023/03/26 09:15:25;;;;;;;26.52;14.32;;;24.20;71.30;;;;;;6044366;28;94052;-73
2023/03/26 09:19:04;;;;;;;24.25;14.38;;;24.20;70.90;;;;;;6082597;28;94285;-73
2023/03/26 09:22:29;;;;;;;28.38;14.77;;;24.30;71.00;;;;;;6081063;28;94150;-73
2023/03/26 09:26:04;;;;;;;26.83;14.90;;;24.30;70.90;;;;;;6081912;28;94169;-71
2023/03/26 09:29:41;;;;;;;25.17;13.07;;;24.30;70.80;;;;;;6080998;28;93006;-72
2023/03/26 09:33:00;;;;;;;25.70;13.25;;;24.30;70.60;;;;;;6080986;28;93544;-74
2023/03/26 09:36:21;;;;;;;24.95;13.00;;;24.30;71.00;;;;;;6083057;28;95483;-71
2023/03/26 09:39:36;;;;;;;23.48;12.65;;;24.30;71.30;;;;;;6079498;28;94022;-72
2023/03/26 09:42:44;;;;;;;20.83;12.10;;;24.30;71.50;;;;;;6081372;28;95252;-72
2023/03/26 09:45:58;;;;;;;20.80;12.15;;;24.40;71.50;;;;;;6081121;28;93775;-74
2023/03/26 09:49:16;;;;;;;22.33;11.57;;;24.40;71.30;;;;;;6079879;28;94183;-73
2023/03/26 09:56:29;;;;;;;23.00;9.90;;;24.30;70.70;;;;;;6079695;28;92553;-72
2023/03/26 09:59:59;;;;;;;18.15;9.32;;;24.30;69.80;;;;;;6082068;28;94168;-71
2023/03/26 10:03:25;;;;;;;19.23;9.35;;;24.40;70.10;;;;;;6078619;28;94169;-70
2023/03/26 10:06:40;;;;;;;18.02;9.32;;;24.30;70.30;;;;;;6083078;28;93449;-70
2023/03/26 10:09:52;;;;;;;16.55;8.63;;;24.30;70.50;;;;;;6082002;28;94178;-71
2023/03/26 10:13:02;;;;;;;17.77;8.50;;;24.30;70.60;;;;;;6073551;28;94149;-72
2023/03/26 10:16:19;;;;;;;14.50;7.10;;;24.30;71.00;;;;;;6079756;28;95007;-72
2023/03/26 10:19:51;;;;;;;15.65;7.50;;;24.30;69.40;;;;;;6080886;28;94438;-71
2023/03/26 10:23:03;;;;;;;16.85;7.07;;;24.30;69.50;;;;;;6079701;28;94199;-71
2023/03/26 10:26:35;;;;;;;11.75;5.72;;;24.30;69.00;;;;;;6075410;28;94087;-72
2023/03/26 10:29:55;;;;;;;11.90;5.63;;;24.30;67.20;;;;;;6080331;28;95487;-73
2023/03/26 10:33:05;;;;;;;13.05;5.43;;;24.30;66.90;;;;;;6070755;28;94118;-72
2023/03/26 10:36:28;;;;;;;10.27;5.43;;;24.30;66.40;;;;;;6073626;28;94538;-74
2023/03/26 10:39:46;;;;;;;12.85;5.45;;;24.30;66.60;;;;;;6075236;28;93372;-72
2023/03/26 10:43:35;;;;;;;12.07;5.07;;;24.30;67.10;;;;;;6080397;28;93098;-72
2023/03/26 10:47:12;;;;;;;7.97;4.40;;;24.20;65.60;;;;;;6077308;28;94200;-73
2023/03/26 10:50:27;;;;;;;9.75;4.53;;;24.20;65.40;;;;;;6079240;28;95148;-71
2023/03/26 10:53:36;;;;;;;9.13;4.38;;;24.20;65.70;;;;;;6079113;28;94103;-72
2023/03/26 10:56:44;;;;;;;9.77;4.93;;;24.20;65.90;;;;;;6079735;28;94063;-71
2023/03/26 10:59:46;;;;;;;8.75;4.57;;;24.20;65.90;;;;;;6078765;28;94409;-71
2023/03/26 11:03:11;;;;;;;9.25;4.20;;;24.20;66.20;;;;;;6079272;28;94228;-72
2023/03/26 11:06:26;;;;;;;10.25;4.30;;;24.20;66.10;;;;;;6076769;28;94403;-72
2023/03/26 11:09:39;;;;;;;7.18;3.72;;;24.20;65.90;;;;;;6079704;28;94301;-72
2023/03/26 11:12:45;;;;;;;5.55;3.63;;;24.20;65.60;;;;;;6077940;28;93358;-72
2023/03/26 11:15:56;;;;;;;6.15;3.53;;;24.20;65.40;;;;;;6080117;28;94154;-72
2023/03/26 11:19:02;;;;;;;6.70;3.75;;;24.20;65.50;;;;;;6080694;28;94353;-73
2023/03/26 11:22:16;;;;;;;6.70;3.60;;;24.20;65.40;;;;;;6080272;28;95241;-73
2023/03/26 11:25:41;;;;;;;6.50;3.78;;;24.20;65.50;;;;;;6082444;28;94127;-73
2023/03/26 11:29:02;;;;;;;8.02;3.55;;;24.20;65.40;;;;;;6079084;28;94610;-72
2023/03/26 11:32:10;;;;;;;6.03;3.28;;;24.20;65.20;;;;;;6079347;28;94113;-72
2023/03/26 11:35:19;;;;;;;13.30;3.67;;;24.30;65.20;;;;;;6079838;28;94095;-70
2023/03/26 11:38:26;;;;;;;9.63;3.75;;;24.30;67.20;;;;;;6080371;28;96466;-77
2023/03/26 11:41:30;;;;;;;10.55;5.20;;;24.30;67.60;;;;;;6079303;28;94081;-75
2023/03/26 11:44:38;;;;;;;148.40;43.90;;;24.30;67.60;;;;;;6081707;28;93419;-74
2023/03/26 11:47:47;;;;;;;320.05;85.25;;;24.30;76.10;;;;;;6069986;28;94483;-73
2023/03/26 11:50:53;;;;;;;305.85;83.63;;;24.40;81.20;;;;;;6080459;28;94272;-75
2023/03/26 11:53:56;;;;;;;126.32;39.00;;;24.60;90.60;;;;;;6078723;28;95110;-71
2023/03/26 11:57:03;;;;;;;97.57;32.05;;;24.70;86.80;;;;;;6080187;28;94295;-70
2023/03/26 12:00:15;;;;;;;79.10;26.23;;;24.80;90.00;;;;;;6075914;28;94944;-78
2023/03/26 12:03:19;;;;;;;63.83;23.95;;;25.00;87.30;;;;;;6081568;28;94568;-76
2023/03/26 12:06:27;;;;;;;127.68;97.80;;;25.10;82.50;;;;;;6080406;28;94075;-74
2023/03/26 12:09:29;;;;;;;76.25;47.45;;;25.20;80.40;;;;;;6078665;28;94211;-73
2023/03/26 12:12:38;;;;;;;65.25;33.08;;;25.40;79.40;;;;;;6079451;28;94085;-76
2023/03/26 12:15:43;;;;;;;64.00;30.27;;;25.60;80.50;;;;;;6073287;28;93357;-80
2023/03/26 12:18:49;;;;;;;75.70;35.80;;;25.70;79.30;;;;;;6078707;28;94152;-78
2023/03/26 12:21:53;;;;;;;55.97;29.00;;;25.80;78.40;;;;;;6080259;28;94187;-78
2023/03/26 12:25:02;;;;;;;62.55;28.17;;;26.10;76.10;;;;;;6080370;28;95158;-77
2023/03/26 12:28:17;;;;;;;61.22;27.15;;;26.50;74.10;;;;;;6080599;28;94095;-78
2023/03/26 12:31:19;;;;;;;56.65;25.88;;;26.70;72.40;;;;;;6073079;28;94470;-78
2023/03/26 12:34:28;;;;;;;50.35;25.27;;;26.70;71.80;;;;;;6076289;28;94110;-74
2023/03/26 12:37:36;;;;;;;47.47;23.60;;;26.70;71.50;;;;;;6079798;28;93202;-74
2023/03/26 12:40:38;;;;;;;46.40;21.95;;;26.60;71.20;;;;;;6080213;28;94202;-75
2023/03/26 12:43:44;;;;;;;44.28;21.25;;;26.40;71.10;;;;;;6078344;28;94243;-75
2023/03/26 12:46:47;;;;;;;42.53;20.65;;;26.30;71.10;;;;;;6080452;28;93799;-74
2023/03/26 12:49:51;;;;;;;41.75;18.80;;;26.10;71.10;;;;;;6079072;28;93391;-74
2023/03/26 12:53:21;;;;;;;40.38;18.95;;;26.00;71.50;;;;;;6070799;28;94393;-74
2023/03/26 12:56:35;;;;;;;38.38;17.80;;;25.80;71.30;;;;;;6074910;28;95440;-74
2023/03/26 12:59:50;;;;;;;38.75;16.90;;;25.70;71.10;;;;;;6079585;28;93107;-72
2023/03/26 13:03:15;;;;;;;33.47;16.33;;;25.70;71.50;;;;;;6078961;28;94185;-72
2023/03/26 13:06:37;;;;;;;34.05;15.40;;;25.50;71.10;;;;;;6078940;28;93909;-73
2023/03/26 13:10:00;;;;;;;32.25;15.35;;;25.50;70.60;;;;;;6077057;28;94031;-76
2023/03/26 13:13:15;;;;;;;28.83;14.45;;;25.40;70.50;;;;;;6079302;28;94095;-76
2023/03/26 13:16:27;;;;;;;27.67;12.98;;;25.40;70.70;;;;;;6080116;28;94080;-76
2023/03/26 13:19:38;;;;;;;27.38;13.18;;;25.40;70.90;;;;;;6077744;28;93571;-77
2023/03/26 13:22:49;;;;;;;25.13;12.80;;;25.30;70.80;;;;;;6077595;28;94478;-77
2023/03/26 13:25:57;;;;;;;26.92;12.48;;;25.30;70.80;;;;;;6076415;28;94156;-76
2023/03/26 13:29:06;;;;;;;22.30;12.02;;;25.30;70.70;;;;;;6075912;28;94960;-76
2023/03/26 13:32:18;;;;;;;24.73;12.55;;;25.20;70.60;;;;;;6076660;28;93197;-76
2023/03/26 13:35:29;;;;;;;21.80;10.75;;;25.20;70.60;;;;;;6078073;28;94306;-74
2023/03/26 13:38:41;;;;;;;23.63;11.57;;;25.20;70.70;;;;;;6074529;28;94674;-74
2023/03/26 13:42:02;;;;;;;23.30;11.43;;;25.20;70.70;;;;;;6081628;28;94150;-75
2023/03/26 13:45:20;;;;;;;19.63;10.32;;;25.20;71.20;;;;;;6078822;28;94126;-76
2023/03/26 13:48:26;;;;;;;20.35;9.77;;;25.10;70.80;;;;;;6080655;28;94623;-74
2023/03/26 13:51:35;;;;;;;23.52;10.73;;;25.20;70.70;;;;;;6078728;28;93307;-69
2023/03/26 13:54:43;;;;;;;22.75;11.18;;;25.10;71.60;;;;;;6078668;28;93662;-72
2023/03/26 13:57:52;;;;;;;22.98;10.60;;;25.10;71.80;;;;;;6081803;28;94574;-72
2023/03/26 14:01:00;;;;;;;20.92;10.65;;;25.10;71.60;;;;;;6080875;28;95364;-72
2023/03/26 14:04:11;;;;;;;17.85;9.55;;;25.10;71.60;;;;;;6083051;28;94067;-72
2023/03/26 14:07:20;;;;;;;20.50;10.40;;;25.10;71.80;;;;;;6084271;28;93186;-73
2023/03/26 14:10:26;;;;;;;19.17;10.02;;;25.10;71.80;;;;;;6082326;28;93704;-72
2023/03/26 14:13:33;;;;;;;18.85;9.80;;;25.10;71.60;;;;;;6080900;28;94428;-71
2023/03/26 14:16:40;;;;;;;17.95;9.65;;;25.10;71.40;;;;;;6081050;28;94440;-72
2023/03/26 14:20:26;;;;;;;19.92;9.68;;;25.10;71.50;;;;;;6082772;28;94122;-69
2023/03/26 14:23:48;;;;;;;21.80;9.85;;;25.10;71.50;;;;;;6078188;28;93741;-73
2023/03/26 14:27:03;;;;;;;19.00;9.32;;;25.10;71.40;;;;;;6073294;28;95370;-74
2023/03/26 14:30:28;;;;;;;19.75;9.70;;;25.10;69.30;;;;;;6073549;28;94171;-72
2023/03/26 14:34:03;;;;;;;19.80;7.78;;;25.10;68.40;;;;;;6081569;28;94851;-72
2023/03/26 14:37:45;;;;;;;11.13;5.47;;;25.10;68.90;;;;;;6071747;28;94097;-70
2023/03/26 14:40:58;;;;;;;12.60;5.55;;;25.00;67.40;;;;;;6080714;28;94203;-70
2023/03/26 14:44:30;;;;;;;11.95;5.80;;;24.90;66.60;;;;;;6081824;28;94455;-70
2023/03/26 14:47:43;;;;;;;13.07;6.75;;;24.90;66.90;;;;;;6076649;28;93258;-70
2023/03/26 14:50:58;;;;;;;14.45;7.22;;;24.90;66.70;;;;;;6083672;28;94060;-70
2023/03/26 14:54:07;;;;;;;17.02;7.05;;;24.90;66.70;;;;;;6081587;28;94475;-70
2023/03/26 14:57:50;;;;;;;16.63;7.50;;;24.90;66.80;;;;;;6074621;28;92309;-70
2023/03/26 15:01:19;;;;;;;14.35;7.07;;;24.90;67.20;;;;;;6033170;28;93071;-70
2023/03/26 15:04:47;;;;;;;15.65;7.40;;;24.80;67.10;;;;;;6082875;28;94133;-70
2023/03/26 15:08:15;;;;;;;18.13;7.78;;;24.80;67.20;;;;;;6075700;28;95007;-70
2023/03/26 15:11:28;;;;;;;17.70;8.10;;;24.80;67.10;;;;;;6081782;28;94167;-70
2023/03/26 15:15:16;;;;;;;18.67;7.95;;;24.80;67.20;;;;;;6083655;28;94079;-70
2023/03/26 15:18:53;;;;;;;18.13;8.95;;;24.80;67.50;;;;;;6074829;28;94125;-72
2023/03/26 15:22:41;;;;;;;21.05;9.05;;;24.80;70.10;;;;;;6073292;28;92077;-71
2023/03/26 15:26:14;;;;;;;18.10;8.52;;;24.80;68.30;;;;;;5986532;29;94088;-70
2023/03/26 15:29:44;;;;;;;19.60;9.02;;;24.80;68.10;;;;;;6080240;28;94172;-69
2023/03/26 15:33:16;;;;;;;16.83;8.48;;;24.80;68.10;;;;;;6081972;28;93577;-69
2023/03/26 15:36:52;;;;;;;18.50;9.23;;;24.80;68.30;;;;;;6080291;28;94204;-69
2023/03/26 15:40:16;;;;;;;21.65;9.52;;;24.70;68.60;;;;;;6000472;28;94459;-69
2023/03/26 15:43:20;;;;;;;20.52;9.05;;;24.70;69.60;;;;;;6073788;28;94207;-69
2023/03/26 15:47:08;;;;;;;18.75;8.98;;;24.80;70.90;;;;;;6078127;28;92767;-70
2023/03/26 15:50:29;;;;;;;18.85;9.32;;;24.90;69.80;;;;;;6062447;28;94298;-68
2023/03/26 15:53:43;;;;;;;17.60;8.52;;;24.90;68.60;;;;;;6079498;28;92789;-69
2023/03/26 15:57:06;;;;;;;17.02;9.02;;;24.90;68.40;;;;;;6068662;28;94097;-68
2023/03/26 16:00:30;;;;;;;19.65;9.27;;;24.90;68.40;;;;;;6080458;28;94306;-68
2023/03/26 16:03:46;;;;;;;17.58;8.45;;;24.80;68.50;;;;;;6067042;28;93482;-69
2023/03/26 16:06:57;;;;;;;17.48;8.57;;;24.90;68.40;;;;;;6072033;28;92761;-69
2023/03/26 16:10:17;;;;;;;16.35;8.38;;;24.90;68.30;;;;;;6082129;28;94065;-69
2023/03/26 16:13:36;;;;;;;18.23;8.50;;;24.80;68.20;;;;;;6070240;28;93454;-69
2023/03/26 16:16:54;;;;;;;15.90;8.43;;;24.80;68.10;;;;;;6077537;28;94077;-69
2023/03/26 16:20:29;;;;;;;15.45;8.77;;;24.90;68.10;;;;;;6071500;28;93172;-69
2023/03/26 16:23:36;;;;;;;14.98;8.35;;;24.80;68.10;;;;;;6072184;28;94557;-69
2023/03/26 16:26:55;;;;;;;14.45;7.82;;;24.80;68.00;;;;;;6082170;28;93326;-70